createdAt,value
2018-02-20T00:00:02.755Z,94.63
2018-02-20T00:04:05.307Z,97.67
2018-02-20T00:08:07.810Z,100.57
2018-02-20T00:12:10.344Z,103.50
2018-02-20T00:16:13.637Z,108.40
2018-02-20T00:20:16.927Z,89.23
2018-02-20T00:24:19.736Z,99.63
2018-02-20T00:28:23.032Z,100.33
2018-02-20T00:32:25.577Z,104.70
2018-02-20T00:36:28.876Z,99.77
2018-02-20T00:40:31.406Z,97.30
2018-02-20T00:44:33.937Z,104.20
2018-02-20T00:48:36.480Z,105.10
2018-02-20T00:52:38.983Z,106.00
2018-02-20T00:56:42.373Z,105.63
2018-02-20T01:00:44.901Z,102.63
2018-02-20T01:04:47.442Z,106.13
2018-02-20T01:08:49.959Z,110.07
2018-02-20T01:12:52.496Z,108.90
2018-02-20T01:16:55.025Z,110.67
2018-02-20T01:20:58.326Z,105.57
2018-02-20T01:25:01.622Z,105.33
2018-02-20T01:29:04.922Z,106.87
2018-02-20T01:33:08.209Z,111.10
2018-02-20T01:37:10.877Z,106.10
2018-02-20T01:41:13.408Z,107.27
2018-02-20T01:45:16.709Z,107.10
2018-02-20T01:49:19.984Z,96.43
2018-02-20T01:53:22.537Z,103.97
2018-02-20T01:57:25.228Z,105.80
2018-02-20T02:01:27.755Z,106.10
2018-02-20T02:05:30.276Z,101.07
2018-02-20T02:09:32.817Z,106.27
2018-02-20T02:13:35.326Z,113.33
2018-02-20T02:17:38.625Z,107.47
2018-02-20T02:21:42.246Z,110.43
2018-02-20T02:25:45.515Z,105.63
2018-02-20T02:29:48.053Z,114.53
2018-02-20T02:33:50.598Z,118.10
2018-02-20T02:37:53.096Z,115.57
2018-02-20T02:41:55.625Z,107.10
2018-02-20T02:45:58.140Z,113.00
2018-02-20T02:50:00.668Z,108.43
2018-02-20T02:54:03.955Z,111.50
2018-02-20T02:58:06.489Z,110.10
2018-02-20T03:02:09.036Z,122.43
2018-02-20T03:06:12.668Z,111.17
2018-02-20T03:10:15.181Z,113.23
2018-02-20T03:14:17.725Z,113.97
2018-02-20T03:18:20.990Z,127.27
2018-02-20T03:22:23.524Z,109.80
2018-02-20T03:26:26.064Z,116.73
2018-02-20T03:30:28.579Z,107.43
2018-02-20T03:34:31.876Z,106.50
2018-02-20T03:38:35.165Z,105.63
2018-02-20T03:42:37.695Z,104.33
2018-02-20T03:46:40.214Z,107.53
2018-02-20T03:50:43.325Z,108.30
2018-02-20T03:54:46.653Z,111.63
2018-02-20T03:58:49.198Z,121.50
2018-02-20T04:02:51.767Z,124.40
2018-02-20T04:06:54.292Z,123.93
2018-02-20T04:10:56.824Z,119.80
2018-02-20T04:14:59.416Z,127.70
2018-02-20T04:19:01.927Z,119.43
2018-02-20T04:23:04.472Z,115.17
2018-02-20T04:27:07.775Z,122.17
2018-02-20T04:31:11.073Z,124.03
2018-02-20T04:35:14.364Z,124.87
2018-02-20T04:39:16.905Z,129.73
2018-02-20T04:43:19.425Z,132.47
2018-02-20T04:47:21.966Z,129.13
2018-02-20T04:51:25.336Z,125.93
2018-02-20T04:55:27.869Z,121.80
2018-02-20T04:59:30.399Z,110.47
2018-02-20T05:03:32.925Z,110.30
2018-02-20T05:07:35.442Z,115.70
2018-02-20T05:11:37.977Z,115.17
2018-02-20T05:15:41.268Z,107.37
2018-02-20T05:19:43.789Z,111.97
2018-02-20T05:23:46.313Z,109.10
2018-02-20T05:27:48.839Z,106.83
2018-02-20T05:31:52.131Z,102.87
2018-02-20T05:35:55.980Z,104.80
2018-02-20T05:39:58.494Z,95.63
2018-02-20T05:44:01.328Z,88.47
2018-02-20T05:48:04.603Z,95.10
2018-02-20T05:52:07.148Z,101.77
2018-02-20T05:56:09.700Z,99.10
2018-02-20T06:00:12.214Z,96.27
2018-02-20T06:04:14.748Z,95.93
2018-02-20T06:08:17.266Z,96.07
2018-02-20T06:12:20.590Z,92.40
2018-02-20T06:16:23.199Z,86.00
2018-02-20T06:20:25.673Z,91.47
2018-02-20T06:24:28.790Z,85.43
2018-02-20T06:28:31.295Z,89.87
2018-02-20T06:32:33.830Z,94.03
2018-02-20T06:36:36.337Z,89.90
2018-02-20T06:40:38.873Z,88.50
2018-02-20T06:44:42.148Z,81.73
2018-02-20T06:48:44.739Z,90.63
2018-02-20T06:52:47.260Z,71.87
2018-02-20T06:56:50.567Z,75.27
2018-02-20T07:00:53.850Z,89.63
2018-02-20T07:04:56.403Z,84.40
2018-02-20T07:08:58.995Z,81.07
2018-02-20T07:13:01.527Z,90.40
2018-02-20T07:17:04.827Z,88.90
2018-02-20T07:21:08.130Z,85.90
2018-02-20T07:25:11.453Z,84.30
2018-02-20T07:29:14.693Z,89.87
2018-02-20T07:33:17.251Z,84.47
2018-02-20T07:37:19.843Z,82.47
2018-02-20T07:41:23.098Z,70.40
2018-02-20T07:45:25.632Z,73.73
2018-02-20T07:49:28.167Z,74.23
2018-02-20T07:53:30.698Z,68.23
2018-02-20T07:57:33.411Z,76.77
2018-02-20T08:01:35.961Z,69.27
2018-02-20T08:05:39.241Z,78.87
2018-02-20T08:09:41.787Z,68.80
2018-02-20T08:13:44.301Z,64.33
2018-02-20T08:17:46.842Z,58.63
2018-02-20T08:21:49.403Z,60.37
2018-02-20T08:25:52.705Z,56.87
2018-02-20T08:29:55.976Z,58.23
2018-02-20T08:33:58.519Z,54.67
2018-02-20T08:38:01.023Z,54.10
2018-02-20T08:42:03.575Z,59.10
2018-02-20T08:46:06.849Z,60.07
2018-02-20T08:50:09.407Z,60.23
2018-02-20T08:54:11.912Z,58.87
2018-02-20T08:58:14.459Z,62.63
2018-02-20T09:02:17.056Z,58.77
2018-02-20T09:06:19.571Z,58.90
2018-02-20T09:10:22.106Z,61.53
2018-02-20T09:14:24.677Z,60.30
2018-02-20T09:18:27.985Z,59.70
2018-02-20T09:22:31.288Z,63.80
2018-02-20T09:26:34.596Z,57.87
2018-02-20T09:30:37.872Z,55.80
2018-02-20T09:34:40.441Z,56.40
2018-02-20T09:38:42.991Z,61.13
2018-02-20T09:42:45.581Z,53.47
2018-02-20T09:46:48.898Z,59.37
2018-02-20T09:50:51.436Z,61.57
2018-02-20T09:54:54.821Z,59.03
2018-02-20T09:58:57.409Z,57.70
2018-02-20T10:03:00.830Z,56.93
2018-02-20T10:07:03.334Z,54.30
2018-02-20T10:11:06.633Z,53.50
2018-02-20T10:15:09.913Z,54.60
2018-02-20T10:19:12.473Z,55.03
2018-02-20T10:23:15.148Z,57.97
2018-02-20T10:27:17.680Z,52.97
2018-02-20T10:31:20.197Z,50.60
2018-02-20T10:35:22.733Z,50.07
2018-02-20T10:39:25.261Z,56.93
2018-02-20T10:43:28.578Z,52.10
2018-02-20T10:47:31.125Z,48.00
2018-02-20T10:51:34.036Z,51.63
2018-02-20T10:55:37.318Z,44.37
2018-02-20T10:59:39.874Z,41.63
2018-02-20T11:03:42.418Z,46.57
2018-02-20T11:07:48.771Z,44.73
2018-02-20T11:11:51.335Z,42.30
2018-02-20T11:28:54.670Z,41.13
2018-02-20T11:32:57.969Z,39.37
2018-02-20T11:37:01.276Z,41.30
2018-02-20T11:41:04.568Z,36.23
2018-02-20T11:45:07.109Z,33.20
2018-02-20T11:49:09.726Z,39.20
2018-02-20T11:53:12.281Z,36.93
2018-02-20T11:57:14.800Z,33.77
2018-02-20T12:01:17.385Z,32.23
2018-02-20T12:05:19.905Z,34.73
2018-02-20T12:09:23.214Z,34.13
2018-02-20T12:13:25.765Z,32.83
2018-02-20T12:17:28.301Z,33.83
2018-02-20T12:21:30.831Z,36.77
2018-02-20T12:25:33.391Z,37.03
2018-02-20T12:29:36.557Z,40.37
2018-02-20T12:33:39.859Z,47.60
2018-02-20T12:37:43.153Z,45.53
2018-02-20T12:41:46.445Z,45.97
2018-02-20T12:45:48.949Z,52.60
2018-02-20T12:49:52.286Z,51.27
2018-02-20T12:53:54.801Z,51.10
2018-02-20T12:57:57.358Z,53.70
2018-02-20T13:01:59.911Z,51.70
2018-02-20T13:06:03.216Z,53.27
2018-02-20T13:10:06.511Z,50.63
2018-02-20T13:14:09.824Z,50.17
2018-02-20T13:18:13.095Z,52.90
2018-02-20T13:22:15.632Z,49.27
2018-02-20T13:26:18.148Z,55.30
2018-02-20T13:30:20.676Z,59.47
2018-02-20T13:34:23.956Z,54.10
2018-02-20T13:38:26.500Z,57.47
2018-02-20T13:42:29.000Z,54.00
2018-02-20T13:46:31.528Z,55.23
2018-02-20T13:50:34.046Z,51.07
2018-02-20T13:54:36.595Z,49.70
2018-02-20T13:58:39.103Z,52.57
2018-02-20T14:02:42.414Z,51.83
2018-02-20T14:06:45.724Z,50.20
2018-02-20T14:10:48.258Z,54.70
2018-02-20T14:14:50.771Z,54.37
2018-02-20T14:18:53.314Z,48.30
2018-02-20T14:22:55.829Z,49.27
2018-02-20T14:26:58.367Z,52.47
2018-02-20T14:31:00.929Z,48.30
2018-02-20T14:35:03.833Z,51.37
2018-02-20T14:39:06.359Z,46.93
2018-02-20T14:43:08.896Z,50.63
2018-02-20T14:47:12.187Z,45.67
2018-02-20T14:51:14.717Z,41.90
2018-02-20T14:55:17.250Z,46.10
2018-02-20T14:59:19.870Z,40.93
2018-02-20T15:03:22.401Z,36.83
2018-02-20T15:07:24.948Z,35.93
2018-02-20T15:11:27.578Z,33.47
2018-02-20T15:15:30.125Z,39.43
2018-02-20T15:19:32.638Z,36.97
2018-02-20T15:23:35.186Z,35.23
2018-02-20T15:27:37.718Z,31.67
2018-02-20T15:31:40.249Z,30.03
2018-02-20T15:35:43.650Z,32.33
2018-02-20T15:39:46.950Z,31.73
2018-02-20T15:43:50.228Z,34.43
2018-02-20T15:47:52.789Z,37.47
2018-02-20T15:51:55.313Z,35.27
2018-02-20T15:55:57.893Z,37.27
2018-02-20T16:00:00.416Z,38.90
2018-02-20T16:04:04.743Z,34.50
2018-02-20T16:08:08.029Z,36.30
2018-02-20T16:12:11.345Z,41.47
2018-02-20T16:16:14.642Z,35.53
2018-02-20T16:20:17.990Z,38.97
2018-02-20T16:24:20.525Z,36.87
2018-02-20T16:28:23.834Z,34.97
2018-02-20T16:32:27.128Z,35.60
2018-02-20T16:36:29.673Z,35.80
2018-02-20T16:40:32.187Z,33.43
2018-02-20T16:44:34.730Z,30.77
2018-02-20T16:48:37.275Z,31.70
2018-02-20T16:52:40.591Z,31.77
2018-02-20T16:56:43.887Z,33.90
2018-02-20T17:00:46.430Z,37.73
2018-02-20T17:04:48.980Z,35.47
2018-02-20T17:08:51.513Z,34.47
2018-02-20T17:12:54.061Z,37.33
2018-02-20T17:16:56.611Z,35.07
2018-02-20T17:20:59.140Z,32.80
2018-02-20T17:25:01.729Z,33.10
2018-02-20T17:29:04.242Z,27.70
2018-02-20T17:33:06.790Z,29.60
2018-02-20T17:37:09.297Z,29.27
2018-02-20T17:41:11.833Z,28.97
2018-02-20T17:45:14.380Z,49.10
2018-02-20T17:49:16.913Z,36.63
2018-02-20T17:53:20.191Z,34.50
2018-02-20T17:57:22.739Z,31.30
2018-02-20T18:01:25.274Z,33.67
2018-02-20T18:05:28.567Z,38.10
2018-02-20T18:09:31.086Z,34.30
2018-02-20T18:13:34.412Z,32.97
2018-02-20T18:17:36.928Z,26.67
2018-02-20T18:21:39.588Z,30.10
2018-02-20T18:25:42.097Z,26.87
2018-02-20T18:29:45.708Z,30.17
2018-02-20T18:33:48.226Z,33.57
2018-02-20T18:37:50.768Z,33.20
2018-02-20T18:41:53.285Z,26.40
2018-02-20T18:45:55.880Z,27.10
2018-02-20T18:49:58.430Z,27.77
2018-02-20T18:54:01.014Z,27.17
2018-02-20T18:58:03.740Z,28.33
2018-02-20T19:02:06.290Z,23.73
2018-02-20T19:06:08.839Z,25.30
2018-02-20T19:10:12.224Z,25.47
2018-02-20T19:14:14.734Z,23.30
2018-02-20T19:18:18.489Z,25.10
2018-02-20T19:22:21.525Z,20.17
2018-02-20T19:26:24.276Z,24.63
2018-02-20T19:30:27.783Z,23.07
2018-02-20T19:34:30.714Z,26.57
2018-02-20T19:38:34.328Z,24.03
2018-02-20T19:42:36.892Z,22.57
2018-02-20T19:46:39.628Z,25.70
2018-02-20T19:50:46.273Z,22.10
2018-02-20T19:54:49.274Z,23.87
2018-02-20T19:58:52.005Z,22.33
2018-02-20T20:02:55.305Z,22.60
2018-02-20T20:06:58.615Z,22.60
2018-02-20T20:11:01.152Z,21.80
2018-02-20T20:15:03.705Z,28.00
2018-02-20T20:19:06.368Z,32.23
2018-02-20T20:23:09.654Z,20.70
2018-02-20T20:27:12.211Z,22.30
2018-02-20T20:31:14.762Z,24.03
2018-02-20T20:35:18.011Z,20.57
2018-02-20T20:39:20.552Z,19.63
2018-02-20T20:43:23.076Z,20.93
2018-02-20T20:47:25.622Z,19.87
2018-02-20T20:51:28.152Z,18.33
2018-02-20T20:55:30.992Z,20.17
2018-02-20T20:59:34.379Z,18.77
2018-02-20T21:03:37.717Z,19.67
2018-02-20T21:07:40.265Z,20.37
2018-02-20T21:11:42.812Z,20.20
2018-02-20T21:15:45.357Z,19.63
2018-02-20T21:19:48.687Z,22.73
2018-02-20T21:23:51.230Z,23.90
2018-02-20T21:27:53.831Z,23.97
2018-02-20T21:31:57.354Z,24.50
2018-02-20T21:35:59.913Z,20.93
2018-02-20T21:40:03.258Z,26.47
2018-02-20T21:44:05.852Z,28.40
2018-02-20T21:48:08.390Z,27.90
2018-02-20T21:52:10.919Z,30.67
2018-02-20T21:56:13.482Z,30.23
2018-02-20T22:00:16.762Z,28.13
2018-02-20T22:04:19.996Z,27.97
2018-02-20T22:08:22.506Z,31.97
2018-02-20T22:12:25.055Z,28.17
2018-02-20T22:16:28.346Z,33.43
2018-02-20T22:20:30.901Z,27.90
2018-02-20T22:24:33.432Z,25.60
2018-02-20T22:28:36.743Z,25.10
2018-02-20T22:32:40.041Z,27.40
2018-02-20T22:36:43.344Z,36.23
2018-02-20T22:40:46.723Z,36.33
2018-02-20T22:44:49.505Z,33.93
2018-02-20T22:48:52.043Z,30.03
2018-02-20T22:52:54.582Z,33.43
2018-02-20T22:56:57.157Z,35.80
2018-02-20T23:00:59.716Z,29.07
2018-02-20T23:05:02.311Z,28.03
2018-02-20T23:09:04.836Z,32.17
2018-02-20T23:13:07.381Z,37.80
2018-02-20T23:17:09.901Z,34.27
2018-02-20T23:21:12.424Z,30.77
2018-02-20T23:25:15.688Z,31.63
2018-02-20T23:29:18.261Z,37.77
2018-02-20T23:33:20.806Z,40.93
2018-02-20T23:37:23.342Z,33.80
2018-02-20T23:41:25.849Z,38.20
2018-02-20T23:45:28.397Z,32.27
2018-02-20T23:49:30.912Z,34.13
2018-02-20T23:53:33.447Z,38.27
2018-02-20T23:57:35.990Z,52.07
